Time;durP1;ratioP1;P1;durP2;ratioP2;P2;SDS_P1;SDS_P2;PMS_P1;PMS_P2;Temp;Humidity;BMP_temperature;BMP_pressure;BME280_temperature;BME280_humidity;BME280_pressure;Samples;Min_cycle;Max_cycle;Signal;HPM_P1;HPM_P2
2022/04/10 00:01:10;;;;;;;11.75;4.10;;;;;;;2.93;71.72;96230.38;5045568;28;20736;-76
2022/04/10 00:03:38;;;;;;;8.70;3.63;;;;;;;2.99;71.48;96234.66;5047579;28;20392;-78
2022/04/10 00:06:05;;;;;;;14.23;5.03;;;;;;;3.02;71.60;96234.09;5046204;28;20072;-78
2022/04/10 00:08:31;;;;;;;9.43;3.90;;;;;;;3.10;71.02;96236.25;5047484;28;20072;-77
2022/04/10 00:10:58;;;;;;;17.20;4.65;;;;;;;3.12;70.94;96234.88;5046432;28;20055;-77
2022/04/10 00:13:24;;;;;;;14.68;4.10;;;;;;;3.24;70.45;96236.47;5045574;28;20052;-79
2022/04/10 00:15:51;;;;;;;11.68;4.15;;;;;;;3.31;70.00;96229.72;5026839;28;20049;-76
2022/04/10 00:18:17;;;;;;;14.60;4.63;;;;;;;3.24;69.88;96237.28;5026693;28;20056;-75
2022/04/10 00:20:45;;;;;;;14.75;4.30;;;;;;;3.32;69.76;96241.28;5026655;28;20056;-77
2022/04/10 00:23:12;;;;;;;13.80;4.72;;;;;;;3.05;69.95;96228.97;5026264;28;20049;-76
2022/04/10 00:25:38;;;;;;;10.20;4.10;;;;;;;3.03;69.89;96241.91;5026658;28;20061;-76
2022/04/10 00:28:05;;;;;;;25.45;5.78;;;;;;;2.84;70.25;96241.66;5025400;28;20500;-76
2022/04/10 00:30:32;;;;;;;15.98;3.92;;;;;;;2.86;70.28;96244.88;5026433;28;20408;-76
2022/04/10 00:32:58;;;;;;;22.02;5.00;;;;;;;2.82;70.24;96246.53;5026001;28;20056;-76
2022/04/10 00:35:25;;;;;;;17.50;4.38;;;;;;;2.83;70.42;96241.94;5026919;28;20381;-76
2022/04/10 00:37:53;;;;;;;15.50;4.30;;;;;;;2.90;70.18;96244.34;5026539;28;20056;-76
2022/04/10 00:40:19;;;;;;;21.80;5.50;;;;;;;2.80;70.24;96243.28;5026193;28;20041;-77
2022/04/10 00:42:48;;;;;;;16.95;4.50;;;;;;;2.83;70.38;96245.44;5026127;28;20485;-77
2022/04/10 00:45:16;;;;;;;17.50;4.63;;;;;;;2.75;70.35;96251.34;5025013;28;20057;-77
2022/04/10 00:47:44;;;;;;;15.02;4.35;;;;;;;2.71;70.40;96247.59;5026553;28;20080;-76
2022/04/10 00:50:12;;;;;;;19.85;4.97;;;;;;;2.70;69.93;96245.97;5025710;28;20605;-76
2022/04/10 00:52:39;;;;;;;18.88;4.93;;;;;;;2.61;70.64;96250.31;5026439;28;20049;-76
2022/04/10 00:55:08;;;;;;;20.40;4.18;;;;;;;2.70;70.40;96251.34;5025444;28;20057;-76
2022/04/10 00:57:35;;;;;;;15.13;4.13;;;;;;;2.55;70.54;96235.22;5026752;28;20164;-78
2022/04/10 01:00:03;;;;;;;13.13;3.65;;;;;;;2.71;69.96;96252.97;5025205;28;20045;-78
2022/04/10 01:02:29;;;;;;;21.02;4.68;;;;;;;2.64;70.31;96257.81;5026850;28;20419;-78
2022/04/10 01:04:56;;;;;;;17.05;4.30;;;;;;;2.74;70.09;96255.13;5026108;28;20068;-76
2022/04/10 01:07:22;;;;;;;18.48;4.40;;;;;;;2.83;69.70;96250.81;5025534;28;20050;-76
2022/04/10 01:09:49;;;;;;;19.15;4.65;;;;;;;2.87;69.65;96249.22;5026082;28;20381;-75
2022/04/10 01:12:17;;;;;;;16.20;4.47;;;;;;;2.93;69.49;96244.63;5025421;28;20041;-76
2022/04/10 01:14:43;;;;;;;13.63;4.00;;;;;;;2.82;69.10;96251.91;5029778;28;20053;-75
2022/04/10 01:17:11;;;;;;;18.65;4.88;;;;;;;2.79;69.38;96252.44;5029351;28;20128;-76
2022/04/10 01:19:39;;;;;;;17.95;4.22;;;;;;;2.69;69.27;96247.06;5030310;28;20052;-76
2022/04/10 01:22:07;;;;;;;15.65;4.55;;;;;;;2.70;69.78;96247.88;5029324;28;20076;-77
2022/04/10 01:24:37;;;;;;;17.48;4.40;;;;;;;2.56;69.63;96253.00;5030604;28;20049;-76
2022/04/10 01:27:04;;;;;;;17.13;4.68;;;;;;;2.51;70.42;96251.13;5029530;28;20049;-75
2022/04/10 01:29:31;;;;;;;19.02;5.05;;;;;;;2.43;70.40;96254.31;5030127;28;20455;-75
2022/04/10 01:31:57;;;;;;;20.00;5.22;;;;;;;2.50;70.57;96256.72;5029588;28;20049;-75
2022/04/10 01:34:24;;;;;;;16.67;4.45;;;;;;;2.56;70.22;96266.44;5029451;28;20045;-76
2022/04/10 01:36:50;;;;;;;18.00;4.45;;;;;;;2.58;70.18;96262.38;5030170;28;20055;-76
2022/04/10 01:39:17;;;;;;;20.15;5.07;;;;;;;2.58;70.09;96259.69;5028754;28;20061;-76
2022/04/10 01:41:46;;;;;;;16.00;4.63;;;;;;;2.39;70.78;96266.69;5029989;28;20045;-76
2022/04/10 01:44:13;;;;;;;17.77;5.15;;;;;;;2.32;71.08;96272.31;5028110;28;20066;-77
2022/04/10 01:46:39;;;;;;;14.88;4.70;;;;;;;2.35;70.57;96269.13;5030392;28;20060;-76
2022/04/10 01:49:08;;;;;;;17.63;4.78;;;;;;;2.42;70.70;96270.72;5028658;28;20045;-76
2022/04/10 01:51:35;;;;;;;20.45;5.32;;;;;;;2.43;70.36;96269.66;5029645;28;20065;-77
2022/04/10 01:54:02;;;;;;;16.83;4.72;;;;;;;2.37;70.58;96273.41;5029613;28;20057;-76
2022/04/10 01:56:29;;;;;;;17.67;4.72;;;;;;;2.23;70.68;96271.22;5029855;28;20554;-75
2022/04/10 01:58:56;;;;;;;15.32;4.50;;;;;;;2.19;71.49;96275.50;5029765;28;20054;-76
2022/04/10 02:01:24;;;;;;;17.45;4.90;;;;;;;2.20;71.23;96271.78;5028485;28;20053;-76
2022/04/10 02:03:51;;;;;;;16.67;4.95;;;;;;;2.20;71.31;96271.78;5029339;28;20060;-76
2022/04/10 02:06:19;;;;;;;23.10;5.60;;;;;;;2.22;71.45;96275.00;5028267;28;20472;-77
2022/04/10 02:08:46;;;;;;;15.23;5.13;;;;;;;2.17;71.57;96269.63;5029928;28;20057;-76
2022/04/10 02:11:13;;;;;;;18.02;5.18;;;;;;;2.19;71.32;96264.78;5028284;28;20050;-76
2022/04/10 02:13:40;;;;;;;19.92;5.40;;;;;;;2.13;71.39;96276.59;5028405;28;20390;-76
2022/04/10 02:16:11;;;;;;;18.35;5.10;;;;;;;2.18;71.59;96273.09;5028411;28;20053;-76
2022/04/10 02:18:38;;;;;;;18.95;5.55;;;;;;;2.22;71.44;96277.69;5028920;28;20046;-76
2022/04/10 02:21:05;;;;;;;14.38;4.65;;;;;;;2.20;71.63;96282.53;5028529;28;20057;-77
2022/04/10 02:23:31;;;;;;;16.80;5.03;;;;;;;2.21;71.59;96280.66;5028519;28;20053;-76
2022/04/10 02:25:58;;;;;;;18.73;5.40;;;;;;;2.31;71.29;96278.78;5028452;28;20053;-76
2022/04/10 02:28:25;;;;;;;17.38;5.22;;;;;;;2.23;71.86;96281.97;5028139;28;20052;-76
2022/04/10 02:30:51;;;;;;;19.30;5.38;;;;;;;2.21;72.17;96284.13;5029387;28;20050;-76
2022/04/10 02:33:19;;;;;;;13.80;4.88;;;;;;;2.24;72.07;96282.78;5027836;28;20076;-76
2022/04/10 02:35:46;;;;;;;15.23;4.93;;;;;;;2.25;72.29;96284.41;5029036;28;20071;-76
2022/04/10 02:38:12;;;;;;;15.13;4.82;;;;;;;2.19;72.26;96291.63;5028038;28;20049;-76
2022/04/10 02:40:39;;;;;;;15.38;5.28;;;;;;;2.12;72.98;96292.97;5028517;28;20057;-76
2022/04/10 02:43:06;;;;;;;18.40;5.75;;;;;;;2.14;73.04;96282.75;5028073;28;20045;-76
2022/04/10 02:45:33;;;;;;;19.35;5.70;;;;;;;2.11;73.27;96276.06;5027640;28;20049;-76
2022/04/10 02:47:59;;;;;;;16.42;5.40;;;;;;;2.05;73.57;96285.19;5028639;28;20049;-76
2022/04/10 02:50:27;;;;;;;18.83;5.07;;;;;;;2.05;73.82;96290.56;5027448;28;20053;-76
2022/04/10 02:52:54;;;;;;;15.10;4.63;;;;;;;2.19;73.41;96280.88;5028901;28;20515;-77
2022/04/10 02:55:21;;;;;;;18.02;5.68;;;;;;;2.18;72.91;96283.84;5027490;28;20053;-75
2022/04/10 02:57:47;;;;;;;15.38;4.70;;;;;;;2.12;73.29;96296.47;5028921;28;20053;-76
2022/04/10 03:00:15;;;;;;;18.77;6.03;;;;;;;1.99;73.70;96288.94;5026989;28;20515;-76
2022/04/10 03:02:42;;;;;;;23.77;6.07;;;;;;;2.01;73.75;96295.63;5028675;28;20058;-77
2022/04/10 03:05:09;;;;;;;15.27;5.10;;;;;;;2.05;73.65;96295.91;5022303;28;20462;-76
2022/04/10 03:07:37;;;;;;;20.98;5.97;;;;;;;1.89;74.21;96295.06;5008566;28;20709;-75
2022/04/10 03:10:04;;;;;;;19.08;5.57;;;;;;;1.82;74.65;96292.63;5007879;28;20504;-76
2022/04/10 03:12:30;;;;;;;19.48;5.90;;;;;;;1.90;74.67;96293.19;5008053;28;20050;-76
2022/04/10 03:14:57;;;;;;;14.95;5.10;;;;;;;1.93;74.43;96295.34;5021457;28;20045;-76
2022/04/10 03:17:24;;;;;;;22.00;5.88;;;;;;;1.92;74.93;96299.09;5027120;28;20064;-76
2022/04/10 03:19:50;;;;;;;17.98;5.53;;;;;;;1.97;74.53;96301.78;5028344;28;20100;-76
2022/04/10 03:22:17;;;;;;;21.60;5.72;;;;;;;1.98;74.68;96308.78;5026812;28;20052;-76
2022/04/10 03:24:45;;;;;;;14.85;5.15;;;;;;;2.03;74.68;96300.72;5028288;28;20136;-77
2022/04/10 03:27:11;;;;;;;17.00;5.80;;;;;;;1.98;75.09;96311.47;5027001;28;20053;-77
2022/04/10 03:29:38;;;;;;;20.27;5.82;;;;;;;2.03;75.06;96303.41;5027763;28;20053;-76
2022/04/10 03:32:05;;;;;;;17.95;5.07;;;;;;;1.92;75.50;96304.47;5027323;28;20073;-76
2022/04/10 03:34:31;;;;;;;21.60;6.22;;;;;;;1.85;76.04;96309.28;5027504;28;20060;-77
2022/04/10 03:36:58;;;;;;;18.58;5.80;;;;;;;1.80;76.33;96313.56;5026808;28;20048;-76
2022/04/10 03:39:25;;;;;;;19.80;6.22;;;;;;;1.80;76.69;96310.88;5026533;28;20500;-76
2022/04/10 03:41:53;;;;;;;19.83;5.95;;;;;;;1.75;76.76;96308.16;5027930;28;20079;-76
2022/04/10 03:44:19;;;;;;;21.25;6.28;;;;;;;1.73;77.17;96315.69;5021374;28;20069;-76
2022/04/10 03:46:46;;;;;;;15.30;5.05;;;;;;;1.73;77.28;96318.38;5027887;28;20508;-76
2022/04/10 03:49:12;;;;;;;19.48;5.85;;;;;;;1.70;77.61;96318.88;5026471;28;20049;-76
2022/04/10 03:51:38;;;;;;;19.15;6.03;;;;;;;1.75;77.54;96315.41;5027327;28;20053;-78
2022/04/10 03:54:05;;;;;;;19.73;6.10;;;;;;;1.72;77.89;96319.44;5026672;28;20060;-76
2022/04/10 03:56:31;;;;;;;18.38;5.85;;;;;;;1.81;77.69;96323.22;5027145;28;20604;-76
2022/04/10 03:58:59;;;;;;;19.55;6.53;;;;;;;1.81;77.97;96325.91;5027207;28;20118;-76
2022/04/10 04:01:26;;;;;;;19.40;5.88;;;;;;;1.79;78.12;96319.19;5026273;28;20057;-76
2022/04/10 04:03:52;;;;;;;16.13;5.63;;;;;;;1.79;78.22;96329.94;5027623;28;20461;-76
2022/04/10 04:06:19;;;;;;;20.15;6.00;;;;;;;1.87;78.16;96336.66;5025921;28;20731;-76
2022/04/10 04:08:45;;;;;;;18.38;5.80;;;;;;;1.79;78.55;96330.75;5027546;28;20077;-77
2022/04/10 04:11:11;;;;;;;18.10;5.68;;;;;;;1.85;78.63;96338.81;5025675;28;20041;-75
2022/04/10 04:13:39;;;;;;;21.08;6.15;;;;;;;1.96;78.35;96345.84;5026603;28;20045;-77
2022/04/10 04:16:07;;;;;;;17.00;5.75;;;;;;;2.01;78.21;96341.28;5026062;28;20079;-76
2022/04/10 04:18:34;;;;;;;18.05;6.35;;;;;;;1.93;78.32;96341.81;5026863;28;20057;-76
2022/04/10 04:21:01;;;;;;;15.90;5.22;;;;;;;1.80;79.04;96340.41;5026922;28;20076;-77
2022/04/10 04:23:28;;;;;;;19.50;5.93;;;;;;;1.89;78.97;96343.41;5026155;28;20135;-77
2022/04/10 04:25:55;;;;;;;13.60;4.80;;;;;;;1.95;78.90;96341.56;5026955;28;20049;-76
2022/04/10 04:28:21;;;;;;;20.17;6.40;;;;;;;1.99;78.55;96342.66;5025835;28;23045;-75
2022/04/10 04:30:48;;;;;;;18.10;5.70;;;;;;;1.90;78.91;96346.91;5026927;28;20205;-77
2022/04/10 04:33:16;;;;;;;16.15;5.72;;;;;;;1.81;79.60;96352.75;5025616;28;20045;-75
2022/04/10 04:35:43;;;;;;;19.15;6.05;;;;;;;1.74;80.08;96354.88;5027059;28;20056;-74
2022/04/10 04:38:09;;;;;;;18.73;5.53;;;;;;;1.78;79.99;96361.34;5025656;28;20465;-75
2022/04/10 04:40:36;;;;;;;19.60;6.32;;;;;;;1.86;79.85;96356.53;5026208;28;20060;-77
2022/04/10 04:43:02;;;;;;;18.02;6.40;;;;;;;1.74;80.18;96359.44;5023448;28;20046;-76
2022/04/10 04:45:29;;;;;;;20.40;6.30;;;;;;;1.79;80.23;96365.66;5026369;28;20048;-75
2022/04/10 04:47:56;;;;;;;16.05;5.47;;;;;;;1.90;79.91;96369.19;5026156;28;20136;-76
2022/04/10 04:50:24;;;;;;;19.45;6.28;;;;;;;1.85;79.95;96377.22;5025368;28;20115;-76
2022/04/10 04:52:50;;;;;;;15.43;5.68;;;;;;;1.83;79.98;96372.13;5026988;28;20075;-77
2022/04/10 04:55:17;;;;;;;19.23;5.93;;;;;;;1.78;80.23;96377.47;5025246;28;20053;-77
2022/04/10 04:57:43;;;;;;;14.43;5.38;;;;;;;1.85;80.47;96376.41;5027230;28;20053;-77
2022/04/10 05:00:13;;;;;;;18.85;6.35;;;;;;;1.74;80.67;96381.72;5025077;28;20104;-78
2022/04/10 05:02:39;;;;;;;20.80;6.28;;;;;;;1.71;80.76;96382.25;5026784;28;20053;-77
2022/04/10 05:05:06;;;;;;;17.85;5.80;;;;;;;1.74;80.75;96387.09;5025430;28;20049;-77
2022/04/10 05:07:34;;;;;;;23.30;6.00;;;;;;;1.87;80.45;96393.06;5026265;28;20057;-78
2022/04/10 05:10:01;;;;;;;18.48;6.20;;;;;;;1.86;80.58;96383.41;5025952;28;20060;-75
2022/04/10 05:12:28;;;;;;;18.33;5.90;;;;;;;1.94;80.27;96389.09;5037417;28;20045;-77
2022/04/10 05:14:54;;;;;;;17.45;5.82;;;;;;;1.98;80.17;96390.16;5042193;28;20226;-76
2022/04/10 05:17:21;;;;;;;24.05;6.47;;;;;;;2.03;80.29;96395.53;5045221;28;20072;-78
2022/04/10 05:19:47;;;;;;;25.33;6.85;;;;;;;2.10;79.86;96395.31;5046538;28;20045;-77
2022/04/10 05:22:14;;;;;;;15.15;5.53;;;;;;;2.21;79.60;96407.72;5045327;28;20053;-78
2022/04/10 05:24:41;;;;;;;22.83;6.60;;;;;;;2.21;79.59;96407.72;5046663;28;20064;-77
2022/04/10 05:27:10;;;;;;;13.05;5.20;;;;;;;2.40;79.09;96407.22;5045099;28;20049;-77
2022/04/10 05:29:36;;;;;;;18.75;6.20;;;;;;;2.40;79.09;96412.59;5045858;28;20668;-78
2022/04/10 05:32:03;;;;;;;15.80;5.38;;;;;;;2.49;78.63;96413.72;5045410;28;20408;-76
2022/04/10 05:34:29;;;;;;;20.20;6.45;;;;;;;2.44;78.35;96414.50;5045487;28;20060;-77
2022/04/10 05:36:56;;;;;;;15.02;5.03;;;;;;;2.50;78.26;96420.69;5046133;28;20056;-78
2022/04/10 05:39:22;;;;;;;24.33;6.93;;;;;;;2.59;78.06;96419.13;5044805;28;20056;-77
2022/04/10 05:41:50;;;;;;;15.57;5.78;;;;;;;2.57;77.95;96423.97;5046490;28;20053;-77
2022/04/10 05:44:16;;;;;;;14.35;5.22;;;;;;;2.53;77.80;96422.88;5040542;28;20053;-78
2022/04/10 05:46:43;;;;;;;15.13;5.72;;;;;;;2.65;77.86;96428.00;5046235;28;20045;-78
2022/04/10 05:49:09;;;;;;;18.20;6.13;;;;;;;2.63;77.66;96436.34;5044856;28;20049;-77
2022/04/10 05:51:36;;;;;;;19.45;6.25;;;;;;;2.74;77.64;96431.78;5045881;28;20056;-78
2022/04/10 05:54:02;;;;;;;14.57;6.10;;;;;;;2.75;77.37;96455.72;5045354;28;20053;-77
2022/04/10 05:56:29;;;;;;;24.35;7.72;;;;;;;2.73;77.36;96440.94;5033596;28;20061;-77
2022/04/10 05:58:57;;;;;;;19.02;5.85;;;;;;;2.80;77.34;96454.91;5045303;28;20053;-77
2022/04/10 06:01:23;;;;;;;14.57;5.55;;;;;;;2.95;76.98;96459.53;5047698;28;20371;-76
2022/04/10 06:03:50;;;;;;;16.95;6.35;;;;;;;2.96;76.96;96466.50;5049708;28;20154;-77
2022/04/10 06:06:18;;;;;;;18.40;6.85;;;;;;;2.97;76.86;96463.56;5048030;28;20092;-77
2022/04/10 06:08:44;;;;;;;17.20;6.07;;;;;;;3.09;76.36;96463.31;5049451;28;20507;-78
2022/04/10 06:11:11;;;;;;;17.08;6.05;;;;;;;3.06;76.26;96469.22;5047769;28;20499;-77
2022/04/10 06:13:37;;;;;;;20.65;6.28;;;;;;;3.09;76.92;96476.78;5048655;28;20049;-78
2022/04/10 06:16:06;;;;;;;17.73;6.32;;;;;;;3.00;76.84;96473.78;5048092;28;20057;-78
2022/04/10 06:18:32;;;;;;;21.48;6.85;;;;;;;3.04;76.53;96469.50;5049101;28;20045;-77
2022/04/10 06:20:58;;;;;;;19.80;6.03;;;;;;;3.11;76.25;96480.00;5048895;28;20053;-76
2022/04/10 06:23:25;;;;;;;18.27;6.55;;;;;;;3.20;76.06;96481.09;5048069;28;20053;-76
2022/04/10 06:25:52;;;;;;;13.55;5.53;;;;;;;3.36;75.85;96485.41;5049273;28;20049;-76
2022/04/10 06:28:18;;;;;;;20.50;6.72;;;;;;;3.47;75.48;96485.41;5047690;28;20056;-76
2022/04/10 06:30:45;;;;;;;15.82;6.15;;;;;;;3.50;75.25;96490.22;5049279;28;20067;-76
2022/04/10 06:33:14;;;;;;;18.58;6.70;;;;;;;3.51;75.00;96484.59;5048005;28;20063;-75
2022/04/10 06:35:41;;;;;;;15.38;6.20;;;;;;;3.61;74.98;96490.00;5049546;28;20057;-76
2022/04/10 06:38:07;;;;;;;14.52;5.90;;;;;;;3.62;74.59;96496.19;5048096;28;20048;-76
2022/04/10 06:40:34;;;;;;;20.00;6.70;;;;;;;3.60;74.45;96498.31;5048694;28;20528;-77
2022/04/10 06:43:00;;;;;;;13.32;5.95;;;;;;;3.57;73.91;96496.97;5048411;28;20045;-75
2022/04/10 06:45:27;;;;;;;19.25;6.82;;;;;;;3.57;74.99;96509.63;5048155;28;20080;-76
2022/04/10 06:47:53;;;;;;;15.07;6.43;;;;;;;3.47;73.52;96515.03;5048987;28;20049;-76
2022/04/10 06:50:22;;;;;;;20.98;7.47;;;;;;;3.56;74.98;96514.22;5047396;28;20088;-77
2022/04/10 06:52:48;;;;;;;13.75;5.78;;;;;;;3.55;74.57;96515.31;5049502;28;20107;-76
2022/04/10 06:55:15;;;;;;;17.25;7.03;;;;;;;3.64;75.03;96515.56;5047359;28;20053;-76
2022/04/10 06:57:41;;;;;;;18.50;7.00;;;;;;;3.69;74.69;96518.25;5049282;28;20060;-76
2022/04/10 07:00:09;;;;;;;12.55;6.38;;;;;;;3.76;74.46;96524.19;5047325;28;20057;-77
2022/04/10 07:02:35;;;;;;;20.75;6.70;;;;;;;3.95;73.88;96526.31;5048976;28;20063;-75
2022/04/10 07:05:02;;;;;;;18.65;7.20;;;;;;;3.93;73.31;96521.22;5047670;28;20057;-76
2022/04/10 07:07:29;;;;;;;21.67;8.07;;;;;;;3.91;72.76;96532.25;5048271;28;20059;-76
2022/04/10 07:09:56;;;;;;;19.83;7.15;;;;;;;4.05;73.20;96534.38;5048444;28;20095;-76
2022/04/10 07:12:22;;;;;;;20.60;7.78;;;;;;;4.13;73.23;96531.16;5047388;28;20056;-77
2022/04/10 07:14:49;;;;;;;15.43;6.40;;;;;;;4.26;72.09;96541.34;5048588;28;20053;-75
2022/04/10 07:17:16;;;;;;;24.92;7.40;;;;;;;4.23;71.21;96539.22;5047133;28;20071;-75
2022/04/10 07:19:42;;;;;;;18.70;7.05;;;;;;;4.33;72.01;96541.91;5048960;28;20118;-76
2022/04/10 07:24:54;;;;;;;20.92;6.90;;;;;;;4.38;71.49;96543.75;5048421;28;20056;-75
2022/04/10 07:27:21;;;;;;;21.73;7.50;;;;;;;4.63;71.57;96537.47;5047330;28;20412;-76
2022/04/10 07:29:47;;;;;;;23.65;7.97;;;;;;;5.09;70.39;96534.56;5047618;28;20686;-76
2022/04/10 07:32:13;;;;;;;18.73;7.10;;;;;;;5.18;68.62;96543.72;5047670;28;20049;-76
2022/04/10 07:34:40;;;;;;;21.80;7.38;;;;;;;5.15;67.68;96544.25;5047405;28;20045;-76
2022/04/10 07:37:07;;;;;;;23.63;7.32;;;;;;;5.26;66.16;96545.00;5047785;28;20048;-76
2022/04/10 07:39:33;;;;;;;33.47;8.38;;;;;;;5.63;68.98;96545.28;5047064;28;20072;-76
2022/04/10 07:42:01;;;;;;;24.73;6.90;;;;;;;6.45;62.99;96540.00;5053278;28;20051;-77
2022/04/10 07:44:27;;;;;;;22.77;6.35;;;;;;;6.62;60.10;96547.66;5046837;28;20499;-75
2022/04/10 07:49:38;;;;;;;20.02;7.05;;;;;;;7.30;59.26;96550.06;5047226;28;20060;-78
2022/04/10 07:52:05;;;;;;;26.60;6.97;;;;;;;7.41;57.45;96549.91;5046919;28;20060;-77
2022/04/10 07:54:32;;;;;;;21.77;6.63;;;;;;;7.18;56.98;96557.81;5047768;28;20055;-76
2022/04/10 07:56:59;;;;;;;18.65;5.97;;;;;;;7.57;57.21;96554.03;5047416;28;20045;-76
2022/04/10 07:59:27;;;;;;;18.38;5.82;;;;;;;8.08;54.38;96561.38;5046589;28;20474;-75
2022/04/10 08:01:53;;;;;;;24.17;5.90;;;;;;;7.91;54.72;96561.91;5046859;28;20122;-75
2022/04/10 08:04:19;;;;;;;26.48;6.60;;;;;;;7.35;55.61;96560.03;5047298;28;20424;-76
2022/04/10 08:06:46;;;;;;;22.55;6.57;;;;;;;6.61;57.73;96570.41;5046901;28;20710;-77
2022/04/10 08:09:12;;;;;;;24.10;6.07;;;;;;;6.33;57.14;96566.66;5046902;28;20053;-78
2022/04/10 08:11:39;;;;;;;24.85;6.82;;;;;;;6.18;57.42;96566.78;5046625;28;20502;-76
2022/04/10 08:14:05;;;;;;;25.25;6.80;;;;;;;5.80;59.20;96582.75;5046355;28;20087;-76
2022/04/10 08:16:33;;;;;;;26.15;6.70;;;;;;;5.52;61.17;96578.06;5046277;28;20051;-76
2022/04/10 08:19:00;;;;;;;24.52;6.68;;;;;;;5.32;61.58;96582.50;5046607;28;20546;-76
2022/04/10 08:21:26;;;;;;;19.13;5.82;;;;;;;5.19;61.72;96580.41;5049376;28;20044;-76
2022/04/10 08:23:53;;;;;;;27.83;7.50;;;;;;;5.14;61.46;96593.94;5047211;28;20061;-75
2022/04/10 08:26:19;;;;;;;27.83;7.00;;;;;;;5.18;62.91;96584.22;5026793;28;20045;-76
2022/04/10 08:28:46;;;;;;;18.70;5.32;;;;;;;5.05;58.51;96587.50;5026022;28;20053;-76
2022/04/10 08:31:12;;;;;;;26.92;6.78;;;;;;;5.11;58.99;96578.28;5026097;28;20052;-76
2022/04/10 08:33:40;;;;;;;18.63;5.80;;;;;;;5.19;57.45;96586.63;5026368;28;20054;-76
2022/04/10 08:36:07;;;;;;;31.42;6.68;;;;;;;5.18;58.21;96597.72;5026083;28;20068;-76
2022/04/10 08:38:33;;;;;;;20.15;6.30;;;;;;;5.14;59.31;96591.25;5026572;28;20068;-75
2022/04/10 08:41:01;;;;;;;21.38;6.63;;;;;;;5.33;60.92;96592.22;5026193;28;20052;-76
2022/04/10 08:43:29;;;;;;;26.83;7.15;;;;;;;5.30;60.56;96592.78;5041800;28;20042;-77
2022/04/10 08:45:57;;;;;;;20.38;6.00;;;;;;;5.43;59.79;96594.88;5025311;28;20041;-76
2022/04/10 08:48:26;;;;;;;16.40;6.10;;;;;;;5.58;59.00;96595.84;5026479;28;20045;-76
2022/04/10 08:50:55;;;;;;;19.92;5.97;;;;;;;6.01;55.93;96595.03;5025651;28;20423;-77
2022/04/10 08:53:22;;;;;;;19.98;5.82;;;;;;;6.91;55.84;96588.22;5026026;28;20556;-76
2022/04/10 08:55:49;;;;;;;13.98;4.75;;;;;;;7.69;51.22;96588.84;5026087;28;20053;-76
2022/04/10 08:58:19;;;;;;;28.63;6.65;;;;;;;8.25;52.73;96577.91;5025024;28;20064;-76
2022/04/10 09:00:45;;;;;;;9.85;4.47;;;;;;;8.73;48.92;96595.81;5023941;28;20041;-77
2022/04/10 09:03:12;;;;;;;18.38;6.00;;;;;;;9.35;48.16;96596.22;5025061;28;20041;-77
2022/04/10 09:05:41;;;;;;;8.52;4.45;;;;;;;9.97;46.51;96595.66;5026311;28;20053;-78
2022/04/10 09:08:11;;;;;;;9.40;5.45;;;;;;;10.07;44.43;96598.94;5025105;28;20049;-78
2022/04/10 09:10:54;;;;;;;13.35;4.82;;;;;;;9.63;44.42;96595.06;5025997;28;20049;-76
2022/04/10 09:13:25;;;;;;;13.98;5.25;;;;;;;9.43;46.36;96594.69;5026554;28;20128;-76
2022/04/10 09:15:52;;;;;;;16.52;5.80;;;;;;;9.93;45.66;96595.50;5024109;28;20780;-76
2022/04/10 09:18:19;;;;;;;12.57;4.78;;;;;;;9.99;46.63;96594.25;5032161;28;20052;-76
2022/04/10 09:21:06;;;;;;;14.75;5.25;;;;;;;9.93;44.81;96596.28;5025820;28;20045;-76
2022/04/10 09:23:34;;;;;;;23.20;5.85;;;;;;;9.09;45.77;96588.59;5046253;28;20098;-76
2022/04/10 09:26:00;;;;;;;17.90;6.25;;;;;;;9.12;46.77;96585.25;5045118;28;20621;-77
2022/04/10 09:28:41;;;;;;;9.18;4.05;;;;;;;9.43;46.51;96584.63;5045976;28;20041;-76
2022/04/10 09:31:27;;;;;;;14.02;4.57;;;;;;;9.76;46.45;96584.44;5045293;28;20069;-75
2022/04/10 09:33:54;;;;;;;17.45;5.50;;;;;;;10.23;45.79;96584.97;5046943;28;20768;-75
2022/04/10 09:36:37;;;;;;;15.18;4.85;;;;;;;9.67;42.57;96593.34;5049750;28;20056;-77
2022/04/10 09:39:09;;;;;;;17.35;5.63;;;;;;;9.25;45.90;96591.81;5049251;28;20053;-76
2022/04/10 09:41:37;;;;;;;21.83;5.18;;;;;;;8.71;45.51;96592.59;5050125;28;20057;-77
2022/04/10 09:44:16;;;;;;;22.02;5.60;;;;;;;8.20;46.73;96588.03;5048643;28;20045;-76
2022/04/10 09:46:44;;;;;;;17.67;5.15;;;;;;;7.66;48.80;96578.56;5048759;28;20136;-75
2022/04/10 09:49:18;;;;;;;32.75;6.60;;;;;;;8.05;49.88;96580.97;5047661;28;20418;-76
2022/04/10 09:52:04;;;;;;;15.93;5.32;;;;;;;8.16;45.97;96576.16;5049723;28;20048;-76
2022/04/10 09:54:37;;;;;;;18.17;5.13;;;;;;;8.20;47.25;96577.19;5049556;28;20048;-76
2022/04/10 09:57:05;;;;;;;21.50;5.70;;;;;;;8.05;47.88;96575.53;5048058;28;20060;-76
2022/04/10 09:59:37;;;;;;;16.27;5.18;;;;;;;7.56;48.54;96585.72;5048152;28;20049;-76
2022/04/10 10:02:05;;;;;;;16.63;5.15;;;;;;;7.29;49.45;96580.16;5047717;28;20122;-75
2022/04/10 10:04:35;;;;;;;16.20;4.78;;;;;;;7.14;49.43;96580.34;5049206;28;20080;-77
2022/04/10 10:07:05;;;;;;;17.02;4.32;;;;;;;7.72;49.66;96577.38;5048009;28;20064;-76
2022/04/10 10:09:33;;;;;;;18.92;5.28;;;;;;;8.35;47.90;96568.75;5048843;28;20047;-76
2022/04/10 10:12:02;;;;;;;17.45;5.15;;;;;;;8.28;47.00;96573.78;5048627;28;20056;-76
2022/04/10 10:14:31;;;;;;;15.52;5.18;;;;;;;8.23;48.70;96584.72;5045916;28;20045;-75
2022/04/10 10:16:58;;;;;;;17.65;4.50;;;;;;;7.95;50.02;96581.91;5049041;28;20057;-75
2022/04/10 10:19:25;;;;;;;17.05;4.88;;;;;;;7.34;48.60;96590.94;5048188;28;20049;-77
2022/04/10 10:21:53;;;;;;;16.77;5.07;;;;;;;6.39;57.49;96599.84;5042778;28;20064;-76
2022/04/10 10:24:22;;;;;;;17.15;4.65;;;;;;;5.06;62.37;96616.91;5028268;28;20049;-76
2022/04/10 10:26:59;;;;;;;14.38;4.43;;;;;;;4.06;68.12;96624.91;5029486;28;20483;-76
2022/04/10 10:29:53;;;;;;;17.60;4.50;;;;;;;3.76;70.72;96621.16;5028304;28;20205;-77
2022/04/10 10:32:52;;;;;;;34.60;6.38;;;;;;;3.37;74.17;96608.16;5028483;28;20053;-76
2022/04/10 10:35:39;;;;;;;19.60;6.07;;;;;;;3.27;75.33;96600.03;5029238;28;20586;-76
2022/04/10 10:38:19;;;;;;;11.52;5.05;;;;;;;3.34;76.13;96600.63;5028286;28;20670;-76
2022/04/10 10:40:46;;;;;;;13.68;4.82;;;;;;;3.47;72.24;96606.56;5028912;28;20468;-76
2022/04/10 10:43:13;;;;;;;13.05;4.32;;;;;;;3.73;71.69;96600.13;5028127;28;20045;-77
2022/04/10 10:45:42;;;;;;;23.10;5.75;;;;;;;4.19;72.29;96594.75;5028183;28;20060;-76
2022/04/10 10:48:37;;;;;;;20.63;4.30;;;;;;;4.83;68.61;96585.97;5028363;28;20060;-76
2022/04/10 10:51:42;;;;;;;11.48;4.32;;;;;;;5.61;69.25;96584.50;5027301;28;20049;-78
2022/04/10 10:54:12;;;;;;;13.13;5.10;;;;;;;6.33;68.05;96585.56;5028678;28;20099;-76
2022/04/10 10:56:40;;;;;;;10.80;4.18;;;;;;;7.00;66.32;96575.66;5028615;28;20053;-76
2022/04/10 10:59:33;;;;;;;13.10;4.68;;;;;;;7.40;58.60;96570.78;5027561;28;20557;-77
2022/04/10 11:02:05;;;;;;;19.60;6.10;;;;;;;7.58;59.39;96572.72;5025240;28;20075;-77
2022/04/10 11:04:35;;;;;;;19.80;4.80;;;;;;;7.86;54.01;96578.25;5027898;28;20095;-76
2022/04/10 11:07:15;;;;;;;13.00;4.90;;;;;;;7.92;57.66;96577.06;5048415;28;20682;-76
2022/04/10 11:09:51;;;;;;;15.63;4.85;;;;;;;8.31;53.81;96565.06;5048053;28;20045;-76
2022/04/10 11:12:21;;;;;;;13.57;4.95;;;;;;;8.70;50.64;96563.84;5047799;28;20059;-77
2022/04/10 11:14:51;;;;;;;14.23;4.32;;;;;;;9.03;50.73;96567.25;5047992;28;20068;-76
2022/04/10 11:17:19;;;;;;;21.00;5.07;;;;;;;8.98;47.86;96576.34;5047398;28;20063;-75
2022/04/10 11:19:48;;;;;;;17.58;4.32;;;;;;;8.56;47.94;96570.06;5048579;28;20056;-76
2022/04/10 11:22:20;;;;;;;10.57;3.90;;;;;;;8.43;49.89;96581.69;5047162;28;20045;-76
2022/04/10 11:24:50;;;;;;;13.18;4.03;;;;;;;8.14;50.02;96578.34;5048650;28;20048;-76
2022/04/10 11:27:40;;;;;;;11.13;3.83;;;;;;;8.00;50.35;96579.13;5046986;28;20052;-77
2022/04/10 11:30:08;;;;;;;16.70;4.50;;;;;;;8.26;50.24;96581.44;5047236;28;20049;-76
2022/04/10 11:32:42;;;;;;;11.63;3.97;;;;;;;8.91;50.93;96575.91;5048025;28;20083;-77
2022/04/10 11:35:15;;;;;;;11.65;4.10;;;;;;;8.68;46.22;96579.63;5047077;28;20055;-76
2022/04/10 11:37:44;;;;;;;11.23;3.70;;;;;;;8.68;45.04;96576.91;5048292;28;20056;-76
2022/04/10 11:40:12;;;;;;;11.93;3.75;;;;;;;8.64;45.95;96579.41;5046640;28;20051;-76
2022/04/10 11:42:39;;;;;;;13.80;4.22;;;;;;;8.43;45.34;96580.88;5047065;28;20118;-77
2022/04/10 11:45:07;;;;;;;11.38;4.40;;;;;;;8.49;49.07;96580.50;5045297;28;20049;-76